Time;durP1;ratioP1;P1;durP2;ratioP2;P2;SDS_P1;SDS_P2;PMS_P1;PMS_P2;Temp;Humidity;BMP_temperature;BMP_pressure;BME280_temperature;BME280_humidity;BME280_pressure;Samples;Min_cycle;Max_cycle;Signal;HPM_P1;HPM_P2
2022/12/16 00:00:09;;;;;;;195.90;88.73;;;;;;;-141.28;100.00;51932.22;5104326;28;20894;-76
2022/12/16 00:02:38;;;;;;;188.30;82.93;;;;;;;-141.28;100.00;51924.38;5094291;28;21038;-77
2022/12/16 00:05:05;;;;;;;172.73;71.70;;;;;;;-141.28;100.00;51922.41;5093979;28;21020;-80
2022/12/16 00:07:33;;;;;;;188.53;83.07;;;;;;;-141.28;100.00;51920.44;5094294;28;20445;-77
2022/12/16 00:10:00;;;;;;;195.03;89.13;;;;;;;-141.28;100.00;51720.16;5094943;28;20441;-75
2022/12/16 00:12:27;;;;;;;214.90;94.90;;;;;;;-141.28;100.00;51910.63;5093908;28;20445;-76
2022/12/16 00:14:55;;;;;;;210.17;94.47;;;;;;;-141.28;100.00;51889.03;5094187;28;20495;-75
2022/12/16 00:17:22;;;;;;;213.63;96.17;;;;;;;-141.28;100.00;51869.38;5108299;28;20830;-78
2022/12/16 00:19:51;;;;;;;209.47;94.90;;;;;;;-141.28;100.00;51720.16;5114555;28;20907;-76
2022/12/16 00:22:19;;;;;;;210.60;93.63;;;;;;;-141.28;100.00;51794.75;5114170;28;20961;-80
2022/12/16 00:24:46;;;;;;;191.37;86.73;;;;;;;-141.28;100.00;51779.06;5106195;28;20449;-76
2022/12/16 00:27:13;;;;;;;184.47;86.23;;;;;;;-141.28;100.00;51753.53;5094664;28;20813;-76
2022/12/16 00:29:40;;;;;;;181.50;84.87;;;;;;;-141.28;100.00;51472.75;5093633;28;21065;-76
2022/12/16 00:32:08;;;;;;;203.77;89.27;;;;;;;-141.28;100.00;51661.25;5093851;28;20445;-78
2022/12/16 00:34:35;;;;;;;267.63;108.97;;;;;;;-141.28;100.00;51582.69;5093489;28;20507;-77
2022/12/16 00:37:04;;;;;;;203.00;90.17;;;;;;;-141.28;100.00;51531.66;5093515;28;20449;-75
2022/12/16 00:39:31;;;;;;;220.90;93.83;;;;;;;-141.28;100.00;51515.94;5093391;28;20483;-76
2022/12/16 00:41:58;;;;;;;197.03;83.37;;;;;;;-141.28;100.00;51449.19;5106792;28;20477;-76
2022/12/16 00:44:26;;;;;;;194.67;84.83;;;;;;;-141.28;100.00;51213.56;5109478;28;20456;-75
2022/12/16 00:46:53;;;;;;;218.23;89.87;;;;;;;-141.28;100.00;51466.84;5116851;28;20439;-75
2022/12/16 00:49:20;;;;;;;217.30;86.97;;;;;;;-141.28;100.00;51492.38;5114181;28;20501;-77
2022/12/16 00:51:48;;;;;;;235.40;91.90;;;;;;;-141.28;100.00;51496.31;5113688;28;20457;-76
2022/12/16 00:54:16;;;;;;;210.93;88.73;;;;;;;-141.28;100.00;51468.81;5094810;28;20441;-76
2022/12/16 00:56:43;;;;;;;232.33;86.60;;;;;;;-141.28;100.00;51313.72;5093457;28;20452;-76
2022/12/16 00:59:10;;;;;;;219.43;83.90;;;;;;;-141.28;100.00;51457.03;5094799;28;20468;-76
2022/12/16 01:01:37;;;;;;;262.87;92.57;;;;;;;-141.28;100.00;51462.94;5107088;28;20542;-77
2022/12/16 01:04:05;;;;;;;318.20;93.97;;;;;;;-141.28;100.00;51476.66;5094657;28;20461;-77
2022/12/16 01:06:32;;;;;;;294.50;93.57;;;;;;;-141.28;100.00;51441.31;5098644;28;20449;-76
2022/12/16 01:08:59;;;;;;;259.27;88.60;;;;;;;-141.28;100.00;51413.84;5112964;28;20441;-75
2022/12/16 01:11:27;;;;;;;257.83;83.80;;;;;;;-141.28;100.00;51417.78;5106390;28;20987;-76
2022/12/16 01:13:55;;;;;;;275.70;86.93;;;;;;;-141.28;100.00;51390.28;5092878;28;20452;-76
2022/12/16 01:16:22;;;;;;;249.40;84.23;;;;;;;-141.28;100.00;51394.22;5099532;28;20441;-75
2022/12/16 01:18:49;;;;;;;213.53;77.40;;;;;;;-141.28;100.00;51394.22;5100265;28;20446;-79
2022/12/16 01:21:19;;;;;;;251.33;79.60;;;;;;;-141.28;100.00;51347.09;5099709;28;20457;-74
2022/12/16 01:23:48;;;;;;;240.53;80.30;;;;;;;-141.28;100.00;51343.16;5098939;28;20967;-76
2022/12/16 01:26:16;;;;;;;302.53;85.50;;;;;;;-141.28;100.00;51201.81;5104690;28;20437;-77
2022/12/16 01:28:47;;;;;;;296.67;81.37;;;;;;;-141.28;100.00;51221.44;5107497;28;20484;-75
2022/12/16 01:31:16;;;;;;;347.00;91.23;;;;;;;-141.28;100.00;51164.50;5105869;28;20518;-76
2022/12/16 01:33:43;;;;;;;385.17;95.63;;;;;;;-141.28;100.00;51087.94;5105636;28;20448;-74
2022/12/16 01:36:10;;;;;;;300.90;90.93;;;;;;;-141.28;100.00;50970.13;5092647;28;20499;-76
2022/12/16 01:38:38;;;;;;;318.40;91.43;;;;;;;-141.28;100.00;50970.13;5092163;28;21032;-76
2022/12/16 01:41:05;;;;;;;325.60;88.87;;;;;;;-141.28;100.00;50940.69;5092314;28;20441;-79
2022/12/16 01:43:34;;;;;;;298.90;92.97;;;;;;;-141.28;100.00;50791.50;5092405;28;20489;-75
2022/12/16 01:46:07;;;;;;;253.47;87.93;;;;;;;-141.28;100.00;50754.19;5092438;28;20980;-78
2022/12/16 01:48:41;;;;;;;377.97;104.53;;;;;;;-141.28;100.00;50622.69;5092423;28;20499;-76
2022/12/16 01:51:13;;;;;;;438.23;106.30;;;;;;;-141.28;100.00;50434.25;5092154;28;20452;-78
2022/12/16 01:53:43;;;;;;;346.10;101.13;;;;;;;-141.28;100.00;50446.03;5104099;28;20510;-76
2022/12/16 01:56:12;;;;;;;414.73;107.53;;;;;;;-141.28;100.00;50400.88;5100743;28;20449;-78
2022/12/16 01:58:41;;;;;;;375.83;100.67;;;;;;;-141.28;100.00;50347.88;5110352;28;20886;-78
2022/12/16 02:01:10;;;;;;;389.00;111.33;;;;;;;-141.28;100.00;50234.03;5092394;28;20448;-75
2022/12/16 02:03:38;;;;;;;343.07;104.90;;;;;;;-141.28;100.00;50145.72;5091804;28;20512;-76
2022/12/16 02:06:07;;;;;;;373.43;112.60;;;;;;;-141.28;100.00;50035.81;5091840;28;20456;-75
2022/12/16 02:08:34;;;;;;;381.40;106.60;;;;;;;-141.28;100.00;49969.06;5091523;28;20457;-76
2022/12/16 02:11:22;;;;;;;409.13;112.63;;;;;;;-141.28;100.00;49878.81;5091888;28;20457;-74
2022/12/16 02:14:12;;;;;;;387.23;113.53;;;;;;;-141.28;100.00;49657.03;5090363;28;20453;-76
2022/12/16 02:16:49;;;;;;;391.97;121.43;;;;;;;-141.28;100.00;49496.13;5092216;28;20457;-76
2022/12/16 02:19:42;;;;;;;422.43;124.47;;;;;;;-141.28;100.00;49380.34;5091515;28;20450;-77
2022/12/16 02:22:21;;;;;;;406.30;116.87;;;;;;;-141.28;100.00;49262.63;5106710;28;20872;-77
2022/12/16 02:25:30;;;;;;;345.43;103.67;;;;;;;-141.28;100.00;49160.59;5092445;28;20450;-79
2022/12/16 02:28:05;;;;;;;369.90;103.80;;;;;;;-141.28;100.00;49089.97;5092669;28;21068;-74
2022/12/16 02:31:00;;;;;;;368.33;103.67;;;;;;;-141.28;100.00;49038.94;5092455;28;21069;-77
2022/12/16 02:33:53;;;;;;;304.87;101.50;;;;;;;-141.28;100.00;48964.38;5091757;28;20437;-78
2022/12/16 02:36:33;;;;;;;293.87;98.70;;;;;;;-141.28;100.00;48964.38;5083822;28;20516;-76
2022/12/16 02:39:05;;;;;;;340.40;103.80;;;;;;;-141.28;100.00;48952.63;5097991;28;20437;-76
2022/12/16 02:41:42;;;;;;;352.57;105.63;;;;;;;-141.28;100.00;48925.16;5096236;28;20453;-75
2022/12/16 02:44:11;;;;;;;420.83;117.37;;;;;;;-141.28;100.00;48933.00;5092518;28;20543;-77
2022/12/16 02:46:42;;;;;;;424.17;117.33;;;;;;;-141.28;100.00;48897.69;5091627;28;20454;-76
2022/12/16 02:49:30;;;;;;;438.40;132.60;;;;;;;-141.28;100.00;48858.44;5092652;28;20464;-79
2022/12/16 02:52:00;;;;;;;398.53;122.37;;;;;;;-141.28;100.00;48736.81;5091578;28;20586;-76
2022/12/16 02:54:28;;;;;;;375.17;118.83;;;;;;;-141.28;100.00;48713.25;5091575;28;20445;-77
2022/12/16 02:57:07;;;;;;;400.03;124.70;;;;;;;-141.28;100.00;48697.56;5096113;28;20972;-76
2022/12/16 02:59:42;;;;;;;369.40;120.17;;;;;;;-141.28;100.00;48658.34;5091246;28;20453;-77
2022/12/16 03:02:16;;;;;;;336.17;109.97;;;;;;;-141.28;100.00;48615.19;5091123;28;21007;-75
2022/12/16 03:04:48;;;;;;;384.50;123.53;;;;;;;-141.28;100.00;48601.44;5091508;28;20503;-76
2022/12/16 03:07:18;;;;;;;345.10;114.70;;;;;;;-141.28;100.00;48548.47;5104470;28;20918;-76
2022/12/16 03:09:48;;;;;;;360.13;115.13;;;;;;;-141.28;100.00;48528.84;5107538;28;20449;-76
2022/12/16 03:12:20;;;;;;;412.50;119.27;;;;;;;-141.28;100.00;48497.47;5092704;28;20514;-76
2022/12/16 03:14:52;;;;;;;414.63;122.97;;;;;;;-141.28;100.00;48438.63;5098015;28;20445;-75
2022/12/16 03:17:24;;;;;;;433.30;129.63;;;;;;;-141.28;100.00;48368.00;5103249;28;20449;-76
2022/12/16 03:19:57;;;;;;;418.33;126.50;;;;;;;-141.28;100.00;48277.75;5101917;28;20456;-78
2022/12/16 03:22:28;;;;;;;412.20;129.20;;;;;;;-141.28;100.00;48152.22;5117374;28;20485;-77
2022/12/16 03:24:56;;;;;;;414.47;129.57;;;;;;;-141.28;100.00;48089.47;5116732;28;20434;-75
2022/12/16 03:27:29;;;;;;;388.53;123.57;;;;;;;-141.28;100.00;48022.75;5092292;28;20477;-78
2022/12/16 03:30:05;;;;;;;409.30;127.00;;;;;;;-141.28;100.00;47987.47;5110813;28;20460;-77
2022/12/16 03:32:39;;;;;;;391.10;120.33;;;;;;;-141.28;100.00;47971.78;5113229;28;20962;-75
2022/12/16 03:35:13;;;;;;;466.80;137.27;;;;;;;-141.28;100.00;47944.31;5114735;28;20448;-77
2022/12/16 03:37:43;;;;;;;385.13;126.67;;;;;;;-141.28;100.00;47948.22;5098024;28;20551;-75
2022/12/16 03:40:12;;;;;;;404.77;114.97;;;;;;;-141.28;100.00;47928.63;5105666;28;20451;-75
2022/12/16 03:42:41;;;;;;;432.90;128.20;;;;;;;-141.28;100.00;47932.53;5097251;28;20487;-75
2022/12/16 03:45:12;;;;;;;406.20;128.07;;;;;;;-141.28;100.00;47928.63;5094920;28;20452;-76
2022/12/16 03:47:41;;;;;;;391.23;118.93;;;;;;;-141.28;100.00;47932.53;5098354;28;20559;-75
2022/12/16 03:50:08;;;;;;;408.90;114.37;;;;;;;-141.28;100.00;47942.34;5116410;28;20436;-75
2022/12/16 03:52:35;;;;;;;397.93;119.70;;;;;;;-141.28;100.00;47940.38;5103927;28;20511;-75
2022/12/16 03:55:03;;;;;;;405.33;116.07;;;;;;;-141.28;100.00;47936.47;5111661;28;20444;-76
2022/12/16 03:57:31;;;;;;;393.00;120.27;;;;;;;-141.28;100.00;47932.53;5105508;28;21018;-75
2022/12/16 04:00:00;;;;;;;408.20;118.57;;;;;;;-141.28;100.00;47909.00;5101446;28;20488;-74
2022/12/16 04:02:27;;;;;;;420.63;121.70;;;;;;;-141.28;100.00;47907.03;5101336;28;20480;-76
2022/12/16 04:04:56;;;;;;;386.27;116.60;;;;;;;-141.28;100.00;47910.97;5107747;28;20442;-78
2022/12/16 04:07:23;;;;;;;355.13;102.20;;;;;;;-141.28;100.00;47905.09;5095692;28;20514;-75
2022/12/16 04:09:51;;;;;;;360.33;111.70;;;;;;;-141.28;100.00;47907.03;5102419;28;20452;-74
2022/12/16 04:26:12;;;;;;;311.00;96.53;;;;;;;-141.28;100.00;47893.31;5107198;28;20438;-74
2022/12/16 04:28:39;;;;;;;262.53;80.17;;;;;;;-141.28;100.00;47889.38;5093470;28;20540;-77
2022/12/16 04:31:06;;;;;;;266.93;81.50;;;;;;;-141.28;100.00;47893.31;5107282;28;20896;-76
